Time;durP1;ratioP1;P1;durP2;ratioP2;P2;SDS_P1;SDS_P2;PMS_P1;PMS_P2;Temp;Humidity;BMP_temperature;BMP_pressure;BME280_temperature;BME280_humidity;BME280_pressure;Samples;Min_cycle;Max_cycle;Signal;HPM_P1;HPM_P2
2022/08/06 00:02:07;;;;;;;;;1.33;1.33;;;;;19.44;38.74;101992.78;5008398;28;45537;-63
2022/08/06 00:04:32;;;;;;;;;1.00;1.00;;;;;19.58;38.79;102010.97;5018638;28;45231;-63
2022/08/06 00:06:58;;;;;;;;;1.00;1.00;;;;;19.52;39.18;102026.97;5013073;28;45479;-63
2022/08/06 00:09:23;;;;;;;;;0.33;0.33;;;;;19.42;38.88;102006.44;5018240;28;46104;-64
2022/08/06 00:11:48;;;;;;;;;2.00;2.00;;;;;19.24;38.60;101978.00;5009209;28;45520;-63
2022/08/06 00:14:14;;;;;;;;;2.00;2.00;;;;;19.43;38.66;102005.44;5001023;28;46477;-64
2022/08/06 00:16:39;;;;;;;;;1.00;1.00;;;;;19.43;39.32;102015.38;5003721;28;45612;-64
2022/08/06 00:19:05;;;;;;;;;2.00;2.00;;;;;19.50;39.14;102032.56;5011740;28;45770;-64
2022/08/06 00:21:31;;;;;;;;;1.00;1.00;;;;;19.55;39.19;102046.41;5003619;28;45338;-63
2022/08/06 00:23:56;;;;;;;;;0.67;0.67;;;;;19.40;39.58;102007.59;4998570;28;45545;-62
2022/08/06 00:26:24;;;;;;;;;0.00;0.00;;;;;19.51;39.10;102025.31;5001691;28;45677;-63
2022/08/06 00:28:49;;;;;;;;;1.00;1.00;;;;;19.56;39.20;102029.19;5018097;28;46681;-62
2022/08/06 00:31:15;;;;;;;;;3.00;0.33;;;;;19.56;39.39;102026.50;5017373;28;45410;-64
2022/08/06 00:33:41;;;;;;;;;2.67;2.00;;;;;19.50;39.07;102027.16;5017707;28;45723;-62
2022/08/06 00:36:07;;;;;;;;;3.67;2.00;;;;;19.36;40.08;102025.16;5018265;28;45322;-63
2022/08/06 00:38:32;;;;;;;;;3.67;2.67;;;;;19.30;39.75;102012.34;5012043;28;48281;-64
2022/08/06 00:40:59;;;;;;;;;4.67;3.00;;;;;19.37;39.30;102010.66;4998146;28;45521;-63
2022/08/06 00:43:26;;;;;;;;;3.00;2.00;;;;;19.35;39.73;102018.06;5009715;28;45856;-64
2022/08/06 00:45:51;;;;;;;;;4.00;4.00;;;;;19.35;39.89;102032.41;5018200;28;45552;-63
2022/08/06 00:48:16;;;;;;;;;4.00;4.00;;;;;19.30;39.54;102031.22;5017643;28;45480;-63
2022/08/06 00:50:42;;;;;;;;;3.00;3.00;;;;;19.25;39.85;102033.59;5017613;28;45463;-64
2022/08/06 00:53:07;;;;;;;;;4.00;2.00;;;;;19.13;40.39;102025.84;5010630;28;45547;-62
2022/08/06 00:55:34;;;;;;;;;6.67;5.00;;;;;18.61;40.32;101939.06;4998100;28;45367;-63
2022/08/06 00:57:59;;;;;;;;;7.67;5.00;;;;;19.19;40.52;102036.94;4997670;28;45497;-63
2022/08/06 01:00:25;;;;;;;;;5.33;5.33;;;;;19.21;40.26;102035.78;4997609;28;45464;-65
2022/08/06 01:02:50;;;;;;;;;4.00;4.00;;;;;19.09;40.42;102029.88;5001579;28;45595;-63
2022/08/06 01:05:16;;;;;;;;;7.00;5.33;;;;;19.19;40.44;102050.44;4997954;28;45295;-63
2022/08/06 01:07:41;;;;;;;;;5.33;5.00;;;;;18.95;40.44;102022.47;4996856;28;46628;-64
2022/08/06 01:10:07;;;;;;;;;8.33;5.33;;;;;19.09;40.81;102040.69;4997634;28;45351;-63
2022/08/06 01:12:32;;;;;;;;;8.67;6.33;;;;;18.52;40.71;101934.69;5008930;28;45371;-62
2022/08/06 01:14:58;;;;;;;;;7.67;5.67;;;;;18.82;40.68;101989.78;4997742;28;45410;-63
2022/08/06 01:17:30;;;;;;;;;7.67;7.67;;;;;19.00;40.72;102038.13;4994785;28;48526;-64
2022/08/06 01:20:12;;;;;;;;;5.67;5.33;;;;;18.98;41.00;102035.59;5010899;28;46405;-63
2022/08/06 01:23:10;;;;;;;;;5.67;4.67;;;;;18.89;41.25;102039.31;5016450;28;45554;-64
2022/08/06 01:25:57;;;;;;;;;6.00;5.33;;;;;18.95;41.29;102046.72;4997766;28;45577;-64
2022/08/06 01:28:28;;;;;;;;;3.67;2.67;;;;;18.95;41.07;102054.81;5010618;28;46178;-65
2022/08/06 01:31:02;;;;;;;;;2.00;2.00;;;;;18.34;41.59;101950.13;4997566;28;45497;-64
2022/08/06 01:33:36;;;;;;;;;6.67;3.67;;;;;18.85;41.50;102048.75;5012802;28;45570;-63
2022/08/06 01:36:09;;;;;;;;;5.00;4.00;;;;;18.80;41.64;102056.47;4997370;28;45360;-63
2022/08/06 01:38:39;;;;;;;;;2.67;2.67;;;;;18.66;41.94;102054.44;4996868;28;46234;-62
2022/08/06 01:41:08;;;;;;;;;3.00;3.00;;;;;18.68;42.01;102047.03;4997184;28;45329;-62
2022/08/06 01:43:35;;;;;;;;;3.33;2.67;;;;;18.68;41.84;102047.88;5006628;28;45362;-62
2022/08/06 01:46:03;;;;;;;;;2.67;1.00;;;;;18.66;41.89;102049.88;5016484;28;45610;-63
2022/08/06 01:48:32;;;;;;;;;5.00;4.33;;;;;17.85;42.34;101931.19;5010736;28;47685;-63
2022/08/06 01:51:02;;;;;;;;;4.00;2.00;;;;;18.46;42.33;102049.31;5012819;28;45343;-63
2022/08/06 01:53:35;;;;;;;;;3.00;3.00;;;;;17.89;42.77;101960.28;4991740;28;45724;-62
2022/08/06 01:56:03;;;;;;;;;3.00;3.00;;;;;18.42;43.05;102053.34;5017055;28;45414;-63
2022/08/06 01:58:33;;;;;;;;;3.00;2.00;;;;;18.44;42.64;102054.00;5016654;28;45798;-62
2022/08/06 02:01:02;;;;;;;;;3.33;3.33;;;;;17.78;43.01;101952.47;5015699;28;45707;-64
2022/08/06 02:03:39;;;;;;;;;2.00;2.00;;;;;18.36;42.97;102064.75;5013883;28;45338;-63
2022/08/06 02:06:06;;;;;;;;;3.00;2.00;;;;;18.37;42.74;102065.59;5015217;28;45562;-63
2022/08/06 02:08:34;;;;;;;;;3.00;3.00;;;;;17.02;43.00;101847.59;5016590;28;46068;-63
2022/08/06 02:11:03;;;;;;;;;4.00;2.00;;;;;18.28;43.01;102037.78;5012826;28;45260;-63
2022/08/06 02:13:30;;;;;;;;;5.00;4.00;;;;;18.23;43.28;102032.06;4998579;28;45405;-64
2022/08/06 02:15:58;;;;;;;;;3.33;3.33;;;;;18.30;43.14;102076.16;5004700;28;45554;-62
2022/08/06 02:18:26;;;;;;;;;3.33;3.33;;;;;18.30;43.35;102065.41;5017437;28;46621;-62
2022/08/06 02:20:54;;;;;;;;;3.00;2.33;;;;;18.20;43.21;102060.13;5017789;28;45463;-64
2022/08/06 02:23:23;;;;;;;;;3.00;3.00;;;;;18.15;43.84;102058.94;5019361;28;45322;-63
2022/08/06 02:25:52;;;;;;;;;5.67;5.67;;;;;17.62;43.94;101979.28;5020469;28;45419;-64
2022/08/06 02:28:20;;;;;;;;;4.00;2.33;;;;;17.87;44.12;102029.53;5016467;28;46812;-64
2022/08/06 02:30:47;;;;;;;;;3.33;2.33;;;;;18.11;44.15;102052.19;5018386;28;45726;-64
2022/08/06 02:33:13;;;;;;;;;2.67;2.00;;;;;18.07;43.92;102050.84;5019774;28;45511;-64
2022/08/06 02:35:57;;;;;;;;;3.00;3.00;;;;;18.14;43.59;102055.41;5019917;28;45518;-64
2022/08/06 02:38:31;;;;;;;;;5.00;3.00;;;;;18.03;43.96;102046.78;5016011;28;45726;-64
2022/08/06 02:41:09;;;;;;;;;4.00;3.00;;;;;17.89;44.10;102024.84;5019626;28;45217;-62
2022/08/06 02:43:38;;;;;;;;;2.33;2.33;;;;;17.97;43.79;102047.41;5003730;28;45626;-63
2022/08/06 02:46:26;;;;;;;;;2.33;2.00;;;;;18.05;43.76;102058.22;5005763;28;45476;-64
2022/08/06 02:48:59;;;;;;;;;5.00;3.00;;;;;17.87;43.84;102026.84;5017935;28;46455;-64
2022/08/06 02:51:33;;;;;;;;;2.00;2.00;;;;;17.96;43.90;102051.94;5019516;28;45504;-65
2022/08/06 02:54:10;;;;;;;;;2.00;2.00;;;;;18.04;43.94;102051.16;5019602;28;45387;-62
2022/08/06 02:56:40;;;;;;;;;2.00;2.00;;;;;17.99;43.39;102026.56;5002312;28;45484;-63
2022/08/06 02:59:08;;;;;;;;;3.00;3.00;;;;;17.90;43.73;102039.13;4999541;28;46652;-62
2022/08/06 03:01:42;;;;;;;;;3.00;2.67;;;;;17.80;44.36;102036.56;5007415;28;46447;-62
2022/08/06 03:04:09;;;;;;;;;2.00;2.00;;;;;17.71;44.75;102048.28;5018566;28;45412;-63
2022/08/06 03:06:36;;;;;;;;;2.33;2.33;;;;;17.60;45.30;102035.06;5018775;28;45539;-62
2022/08/06 03:09:05;;;;;;;;;3.00;3.00;;;;;17.54;45.05;102035.69;5000816;28;48144;-63
2022/08/06 03:11:33;;;;;;;;;1.33;1.33;;;;;17.00;45.13;101943.59;5006487;28;45284;-62
2022/08/06 03:14:03;;;;;;;;;2.67;2.67;;;;;17.58;45.09;102037.91;5013885;28;47164;-63
2022/08/06 03:16:36;;;;;;;;;3.00;3.00;;;;;17.65;45.13;102040.81;4999991;28;45622;-63
2022/08/06 03:19:03;;;;;;;;;3.33;2.00;;;;;16.65;45.16;101867.44;4999071;28;46432;-62
2022/08/06 03:21:32;;;;;;;;;3.00;1.67;;;;;17.23;45.47;101978.88;5005560;28;45461;-62
2022/08/06 03:23:58;;;;;;;;;3.67;2.00;;;;;17.56;45.32;102039.06;5000027;28;45601;-63
2022/08/06 03:26:29;;;;;;;;;4.00;2.67;;;;;17.51;45.83;102030.63;5014564;28;45527;-63
2022/08/06 03:28:56;;;;;;;;;2.00;2.00;;;;;17.46;45.55;102036.50;5000170;28;45652;-62
2022/08/06 03:31:23;;;;;;;;;1.00;1.00;;;;;17.06;45.66;101964.47;5009201;28;45354;-63
2022/08/06 03:33:52;;;;;;;;;2.33;2.00;;;;;17.40;45.53;102033.56;5019126;28;45578;-63
2022/08/06 03:36:18;;;;;;;;;2.00;1.00;;;;;17.44;45.51;102034.97;5004204;28;45251;-63
2022/08/06 03:38:55;;;;;;;;;3.00;3.00;;;;;17.40;45.46;102042.47;5005032;28;46655;-63
2022/08/06 03:41:21;;;;;;;;;2.00;2.00;;;;;17.19;45.86;102029.38;4999112;28;45178;-62
2022/08/06 03:43:47;;;;;;;;;2.67;2.67;;;;;17.23;46.01;102040.69;5016457;28;45561;-62
2022/08/06 03:46:15;;;;;;;;;2.67;2.67;;;;;16.70;46.45;101964.50;5001134;28;45400;-63
2022/08/06 03:48:43;;;;;;;;;2.00;2.00;;;;;16.58;46.47;101949.59;5007736;28;45608;-63
2022/08/06 03:51:16;;;;;;;;;3.67;2.67;;;;;17.10;46.46;102049.16;4998510;28;45208;-63
2022/08/06 03:53:47;;;;;;;;;5.00;2.67;;;;;17.04;46.74;102039.03;4998700;28;45346;-64
2022/08/06 03:56:16;;;;;;;;;3.67;2.67;;;;;17.05;46.48;102037.19;4998344;28;45416;-64
2022/08/06 03:58:44;;;;;;;;;2.33;2.33;;;;;16.90;46.36;102010.00;5010783;28;45824;-63
2022/08/06 04:01:14;;;;;;;;;3.00;3.00;;;;;17.00;46.37;102046.53;5017075;28;45257;-63
2022/08/06 04:03:41;;;;;;;;;2.33;2.33;;;;;16.94;46.38;102032.88;5018202;28;45342;-62
2022/08/06 04:06:09;;;;;;;;;2.00;2.00;;;;;16.95;46.43;102040.78;5010247;28;45547;-63
2022/08/06 04:08:36;;;;;;;;;3.00;3.00;;;;;16.94;46.59;102043.63;5002911;28;46590;-63
2022/08/06 04:11:02;;;;;;;;;5.00;3.00;;;;;16.77;46.92;102014.91;5011393;28;45520;-62
2022/08/06 04:13:28;;;;;;;;;4.67;3.00;;;;;17.02;46.29;102043.72;4998447;28;45318;-62
2022/08/06 04:15:55;;;;;;;;;3.33;3.00;;;;;16.90;46.34;102024.28;5005072;28;45245;-73
2022/08/06 04:18:24;;;;;;;;;4.00;3.00;;;;;16.94;45.93;102043.63;5012905;28;46402;-63
2022/08/06 04:20:54;;;;;;;;;5.67;4.67;;;;;16.92;46.23;102057.22;5014671;28;45344;-63
2022/08/06 04:23:19;;;;;;;;;4.33;3.67;;;;;16.90;45.79;102050.31;4998771;28;45414;-63
2022/08/06 04:25:51;;;;;;;;;2.00;2.00;;;;;17.01;46.10;102055.44;4998793;28;45302;-63
2022/08/06 04:28:19;;;;;;;;;3.00;3.00;;;;;16.64;45.62;101985.75;5008265;28;47489;-63
2022/08/06 04:30:45;;;;;;;;;5.00;3.00;;;;;16.95;45.44;102064.97;4998001;28;45347;-62
2022/08/06 04:33:13;;;;;;;;;2.00;2.00;;;;;16.97;45.30;102057.59;5002170;28;45414;-63
2022/08/06 04:35:42;;;;;;;;;2.00;2.00;;;;;16.97;45.57;102064.81;5018161;28;45171;-62
2022/08/06 04:38:10;;;;;;;;;3.00;2.00;;;;;16.58;45.32;101997.06;5017086;28;46784;-63
2022/08/06 04:40:40;;;;;;;;;2.00;2.00;;;;;16.96;45.19;102065.81;5008219;28;45644;-63
2022/08/06 04:43:08;;;;;;;;;2.67;1.67;;;;;16.38;45.71;101977.56;5017526;28;45406;-63
2022/08/06 04:45:36;;;;;;;;;3.00;2.00;;;;;16.97;45.56;102075.53;5012447;28;45450;-63
2022/08/06 04:48:05;;;;;;;;;2.00;2.00;;;;;16.93;45.37;102095.66;5011893;28;46934;-63
2022/08/06 04:50:31;;;;;;;;;2.67;2.67;;;;;16.91;45.31;102093.13;4976618;28;45399;-63
2022/08/06 04:53:13;;;;;;;;;1.00;1.00;;;;;16.85;45.59;102087.53;5017875;28;45453;-63
2022/08/06 04:55:39;;;;;;;;;0.00;0.00;;;;;16.79;45.41;102085.44;5018077;28;45546;-63
2022/08/06 04:58:07;;;;;;;;;3.00;2.67;;;;;16.81;45.60;102092.34;5007035;28;46739;-63
2022/08/06 05:00:34;;;;;;;;;2.67;1.33;;;;;16.82;45.69;102099.44;5012177;28;45371;-63
2022/08/06 05:02:59;;;;;;;;;2.00;2.00;;;;;16.21;45.83;102024.84;5011335;28;45337;-63
2022/08/06 05:05:26;;;;;;;;;1.33;1.00;;;;;16.78;45.62;102102.53;5015803;28;45647;-63
2022/08/06 05:07:54;;;;;;;;;1.00;1.00;;;;;16.79;45.20;102088.13;5013730;28;47093;-62
2022/08/06 05:10:21;;;;;;;;;1.00;1.00;;;;;16.10;45.12;101964.22;5016395;28;45298;-64
2022/08/06 05:12:52;;;;;;;;;2.00;2.00;;;;;16.79;44.84;102097.03;5003890;28;45243;-62
2022/08/06 05:15:44;;;;;;;;;2.00;1.00;;;;;16.89;44.94;102100.50;4997779;28;45331;-63
2022/08/06 05:18:15;;;;;;;;;1.00;0.00;;;;;16.84;44.83;102093.91;5013302;28;46748;-63
2022/08/06 05:20:50;;;;;;;;;1.00;1.00;;;;;16.70;45.31;102088.03;5017208;28;45387;-63
2022/08/06 05:23:20;;;;;;;;;1.00;0.67;;;;;16.67;45.13;102088.34;5017229;28;45238;-63
2022/08/06 05:25:49;;;;;;;;;3.00;2.00;;;;;16.85;44.96;102114.41;5014000;28;45409;-64
2022/08/06 05:28:15;;;;;;;;;1.00;1.00;;;;;16.18;45.70;102025.16;5007092;28;46523;-64
2022/08/06 05:30:46;;;;;;;;;1.00;1.00;;;;;16.64;45.65;102123.53;5009338;28;45536;-64
2022/08/06 05:33:22;;;;;;;;;2.00;1.00;;;;;16.78;45.83;102126.72;4997539;28;45279;-63
2022/08/06 05:35:47;;;;;;;;;1.33;1.33;;;;;16.82;45.43;102136.16;4997682;28;45247;-63
2022/08/06 05:38:13;;;;;;;;;2.00;2.00;;;;;16.86;45.25;102124.13;4995777;28;47828;-64
2022/08/06 05:40:39;;;;;;;;;1.00;1.00;;;;;16.82;45.47;102114.66;5008397;28;45611;-66
2022/08/06 05:43:05;;;;;;;;;1.67;1.33;;;;;16.16;45.36;102007.53;4999773;28;45567;-67
2022/08/06 05:45:31;;;;;;;;;1.00;1.00;;;;;16.89;45.32;102124.69;5000022;28;45610;-63
2022/08/06 05:47:59;;;;;;;;;2.00;2.00;;;;;16.74;45.65;102102.00;4998803;28;46292;-63
2022/08/06 05:50:29;;;;;;;;;1.67;0.33;;;;;16.86;45.46;102127.66;4996958;28;45337;-63
2022/08/06 05:53:09;;;;;;;;;2.33;2.00;;;;;16.90;45.79;102128.22;5007631;28;45544;-64
2022/08/06 05:55:43;;;;;;;;;1.00;1.00;;;;;16.90;45.68;102136.25;5017939;28;46044;-63
2022/08/06 05:58:15;;;;;;;;;4.00;3.00;;;;;16.57;45.25;102063.34;5020474;28;46865;-63
2022/08/06 06:00:41;;;;;;;;;0.67;0.67;;;;;16.33;45.65;102038.94;5010014;28;45417;-63
2022/08/06 06:03:11;;;;;;;;;1.00;1.00;;;;;16.89;45.57;102135.41;5000998;28;45488;-64
2022/08/06 06:05:37;;;;;;;;;3.00;0.67;;;;;16.89;45.71;102137.25;5000899;28;45527;-62
2022/08/06 06:08:06;;;;;;;;;1.33;1.00;;;;;16.95;45.30;102136.66;5000303;28;46463;-63
2022/08/06 06:10:33;;;;;;;;;4.00;2.33;;;;;16.94;45.10;102132.28;5009324;28;45477;-63
2022/08/06 06:12:59;;;;;;;;;1.00;1.00;;;;;16.90;45.10;102102.19;4995631;28;45442;-63
2022/08/06 06:15:25;;;;;;;;;2.00;2.00;;;;;17.09;45.12;102128.06;5000522;28;46090;-63
2022/08/06 06:18:00;;;;;;;;;1.33;1.00;;;;;17.18;44.92;102121.75;5011665;28;47580;-63
2022/08/06 06:20:43;;;;;;;;;1.00;1.00;;;;;17.56;44.37;102131.34;5020034;28;45230;-63
2022/08/06 06:23:26;;;;;;;;;1.00;1.00;;;;;18.40;42.10;102136.09;5004024;28;45515;-63
2022/08/06 06:26:05;;;;;;;;;2.00;2.00;;;;;19.33;40.22;102111.78;5011379;28;45507;-64
2022/08/06 06:28:53;;;;;;;;;1.00;1.00;;;;;20.25;37.78;102127.56;5010241;28;46594;-64
2022/08/06 06:31:40;;;;;;;;;2.00;2.00;;;;;21.09;36.64;102089.97;5006681;28;46422;-63
2022/08/06 06:34:17;;;;;;;;;2.00;2.00;;;;;22.01;34.17;102123.97;5006585;28;45345;-64
2022/08/06 06:36:56;;;;;;;;;3.00;1.00;;;;;22.62;33.28;102116.50;5000236;28;45513;-64
2022/08/06 06:39:38;;;;;;;;;1.67;1.00;;;;;23.37;31.97;102101.69;4999788;28;46722;-63
2022/08/06 06:42:16;;;;;;;;;2.00;1.67;;;;;23.96;31.42;102102.16;5004879;28;45349;-64
2022/08/06 06:44:57;;;;;;;;;1.00;1.00;;;;;24.92;29.39;102129.41;5009884;28;45597;-63
2022/08/06 06:47:29;;;;;;;;;1.00;1.00;;;;;25.37;28.04;102105.19;5003664;28;45282;-63
2022/08/06 06:50:13;;;;;;;;;1.00;1.00;;;;;25.34;27.88;102048.47;5014562;28;47021;-64
2022/08/06 06:52:41;;;;;;;;;1.00;1.00;;;;;25.88;27.04;102132.66;5018707;28;45310;-65
2022/08/06 06:55:19;;;;;;;;;2.00;0.00;;;;;25.99;26.43;102131.16;5001925;28;45245;-63
2022/08/06 06:57:50;;;;;;;;;2.00;2.00;;;;;26.18;26.65;102135.75;5014074;28;45635;-63
2022/08/06 07:00:16;;;;;;;;;0.67;0.67;;;;;26.78;26.25;102117.28;5011862;28;46597;-62
2022/08/06 07:02:48;;;;;;;;;3.33;0.33;;;;;27.27;24.93;102134.88;5013387;28;46468;-62
2022/08/06 07:05:15;;;;;;;;;1.00;1.00;;;;;27.08;23.82;102064.88;5004059;28;45359;-62
2022/08/06 07:07:42;;;;;;;;;0.67;0.67;;;;;27.12;24.39;102041.50;5018624;28;45394;-65
2022/08/06 07:10:12;;;;;;;;;0.67;0.67;;;;;27.97;23.39;102129.22;5018157;28;45655;-66
2022/08/06 07:12:40;;;;;;;;;2.33;1.00;;;;;27.55;23.17;102110.69;5008765;28;45491;-64
2022/08/06 07:15:08;;;;;;;;;0.00;0.00;;;;;27.77;23.28;102145.81;5017623;28;45657;-66
2022/08/06 07:17:36;;;;;;;;;0.00;0.00;;;;;27.71;23.10;102149.47;5012638;28;45542;-65
2022/08/06 07:20:07;;;;;;;;;1.00;1.00;;;;;27.62;23.73;102148.03;5013413;28;46463;-63
2022/08/06 07:22:35;;;;;;;;;1.00;1.00;;;;;27.72;23.21;102151.13;5011697;28;45420;-65
2022/08/06 07:25:03;;;;;;;;;1.00;1.00;;;;;27.99;22.71;102147.09;5003705;28;45351;-64
2022/08/06 07:27:37;;;;;;;;;0.00;0.00;;;;;28.63;22.41;102158.59;4998259;28;45422;-64
2022/08/06 07:30:04;;;;;;;;;0.33;0.33;;;;;29.01;21.87;102130.94;4997377;28;47547;-62
2022/08/06 07:32:35;;;;;;;;;0.33;0.33;;;;;29.30;21.49;102110.91;5003543;28;45346;-63
2022/08/06 07:35:02;;;;;;;;;1.00;1.00;;;;;30.16;20.40;102130.50;5018402;28;45351;-63
2022/08/06 07:37:29;;;;;;;;;0.67;0.67;;;;;29.50;20.14;102001.00;5028399;28;45234;-62
2022/08/06 07:39:57;;;;;;;;;0.67;0.67;;;;;31.25;19.43;102161.59;5017457;28;46168;-63
2022/08/06 07:42:24;;;;;;;;;0.00;0.00;;;;;31.83;18.84;102163.09;5000569;28;45417;-63
2022/08/06 07:44:54;;;;;;;;;1.00;1.00;;;;;32.18;18.19;102102.25;5015669;28;45560;-62
2022/08/06 07:47:26;;;;;;;;;1.00;1.00;;;;;32.91;17.63;102130.41;5018192;28;45542;-65
2022/08/06 07:49:56;;;;;;;;;1.67;1.00;;;;;33.28;17.16;102138.78;5018448;28;46353;-65
2022/08/06 07:52:21;;;;;;;;;1.00;1.00;;;;;33.45;17.00;102164.31;5010182;28;46069;-64
2022/08/06 07:54:48;;;;;;;;;2.00;1.00;;;;;33.46;17.30;102154.94;4998724;28;45475;-64
2022/08/06 07:57:15;;;;;;;;;0.00;0.00;;;;;33.28;16.52;102163.56;4998791;28;45371;-64
2022/08/06 07:59:41;;;;;;;;;1.00;1.00;;;;;32.83;17.23;102162.00;4997107;28;45964;-64
2022/08/06 08:02:10;;;;;;;;;0.00;0.00;;;;;32.71;17.58;102153.03;4996969;28;46235;-63
2022/08/06 08:07:22;;;;;;;;;2.00;2.00;;;;;33.08;16.89;102153.19;4998802;28;45217;-64
2022/08/06 08:09:48;;;;;;;;;0.00;0.00;;;;;33.35;16.46;102149.59;4996613;28;46773;-64
2022/08/06 08:12:17;;;;;;;;;0.00;0.00;;;;;33.10;16.15;102152.94;5013542;28;46558;-64
2022/08/06 08:14:48;;;;;;;;;0.00;0.00;;;;;32.25;17.16;102168.97;4998472;28;45507;-64
2022/08/06 08:17:14;;;;;;;;;3.00;1.00;;;;;32.32;17.30;102155.88;4997045;28;45365;-64
2022/08/06 08:19:41;;;;;;;;;0.00;0.00;;;;;32.60;17.24;102168.59;4997285;28;45792;-63
2022/08/06 08:22:13;;;;;;;;;2.00;0.00;;;;;32.25;17.14;102160.72;4995395;28;45314;-64
2022/08/06 08:24:39;;;;;;;;;1.67;1.67;;;;;32.16;17.68;102153.97;4993335;28;45364;-65
2022/08/06 08:27:10;;;;;;;;;2.00;2.00;;;;;31.83;17.97;102159.50;4993886;28;45479;-64
2022/08/06 08:29:36;;;;;;;;;2.67;1.00;;;;;31.75;18.07;102164.38;4982866;28;46186;-67
2022/08/06 08:32:02;;;;;;;;;2.33;2.33;;;;;31.64;18.08;102148.78;5007545;28;45329;-63
2022/08/06 08:34:28;;;;;;;;;1.00;0.00;;;;;31.27;18.52;102153.09;4990377;28;45392;-65
2022/08/06 08:36:54;;;;;;;;;1.33;1.33;;;;;31.42;18.13;102162.41;4993011;28;45365;-64
2022/08/06 08:39:19;;;;;;;;;1.33;1.00;;;;;32.01;18.09;102159.25;4992666;28;45561;-64
2022/08/06 08:42:00;;;;;;;;;3.00;3.00;;;;;32.36;17.55;102150.69;4981513;28;45516;-64
2022/08/06 08:44:27;;;;;;;;;24.00;18.00;;;;;32.44;17.50;102142.00;4997007;28;45238;-64
2022/08/06 08:46:56;;;;;;;;;0.00;0.00;;;;;32.43;17.48;102136.72;4997854;28;45421;-65
2022/08/06 08:49:54;;;;;;;;;0.00;0.00;;;;;32.53;16.46;102142.34;4991450;28;46368;-65
2022/08/06 08:52:27;;;;;;;;;0.00;0.00;;;;;31.43;16.51;102139.34;4995339;28;45479;-69
2022/08/06 08:54:58;;;;;;;;;1.00;1.00;;;;;31.18;16.88;102130.66;5016554;28;45343;-61
2022/08/06 08:57:26;;;;;;;;;0.00;0.00;;;;;30.90;17.38;102148.00;5003547;28;45587;-65
2022/08/06 08:59:52;;;;;;;;;2.00;0.00;;;;;31.35;16.54;102116.94;4979897;28;45445;-65
2022/08/06 09:02:17;;;;;;;;;1.00;0.00;;;;;31.63;16.93;102140.75;5000062;28;45333;-66
2022/08/06 09:04:44;;;;;;;;;0.00;0.00;;;;;31.26;16.59;102055.25;5008597;28;45750;-64
2022/08/06 09:07:10;;;;;;;;;1.00;1.00;;;;;31.93;15.95;102132.19;5013087;28;45493;-66
2022/08/06 09:09:38;;;;;;;;;1.00;1.00;;;;;32.26;16.27;102145.88;5008026;28;45531;-65
2022/08/06 09:12:04;;;;;;;;;0.00;0.00;;;;;32.50;15.72;102124.44;5003876;28;45427;-65
2022/08/06 09:14:30;;;;;;;;;0.00;0.00;;;;;33.09;15.01;102148.50;5002603;28;45424;-66
2022/08/06 09:16:57;;;;;;;;;0.00;0.00;;;;;33.05;15.46;102141.88;4998830;28;45674;-65
2022/08/06 09:19:23;;;;;;;;;0.00;0.00;;;;;33.29;14.58;102154.22;5016945;28;46470;-66
2022/08/06 09:21:48;;;;;;;;;0.00;0.00;;;;;33.55;14.76;102130.47;5000091;28;45485;-68
2022/08/06 09:24:14;;;;;;;;;1.00;1.00;;;;;34.02;14.02;102140.72;5015495;28;45507;-66
2022/08/06 09:27:02;;;;;;;;;0.00;0.00;;;;;35.49;12.80;102143.13;5015344;28;45599;-66
2022/08/06 09:29:27;;;;;;;;;1.00;0.00;;;;;36.74;12.44;102120.03;5016633;28;46218;-67
2022/08/06 09:31:54;;;;;;;;;0.00;0.00;;;;;37.72;11.64;102136.50;5016714;28;45369;-67
2022/08/06 09:34:19;;;;;;;;;0.00;0.00;;;;;38.49;10.75;102141.16;4996044;28;45616;-67
2022/08/06 09:36:46;;;;;;;;;0.00;0.00;;;;;39.04;10.21;102149.81;5012913;28;45577;-66
2022/08/06 09:39:12;;;;;;;;;0.00;0.00;;;;;39.66;9.70;102133.81;5016297;28;46703;-66
2022/08/06 09:41:49;;;;;;;;;0.00;0.00;;;;;40.04;9.56;102146.41;5016462;28;45551;-67
2022/08/06 09:44:15;;;;;;;;;0.00;0.00;;;;;40.72;9.36;102148.31;5000246;28;45307;-67
2022/08/06 09:46:51;;;;;;;;;0.00;0.00;;;;;41.50;8.62;102150.91;4997471;28;45437;-67
2022/08/06 09:49:18;;;;;;;;;0.67;0.00;;;;;42.25;8.50;102151.91;4997515;28;46742;-65
2022/08/06 09:51:43;;;;;;;;;0.00;0.00;;;;;43.06;7.91;102139.06;5000878;28;46508;-73
2022/08/06 09:54:15;;;;;;;;;0.00;0.00;;;;;42.65;7.68;102133.94;5005390;28;45781;-66
2022/08/06 09:56:44;;;;;;;;;0.00;0.00;;;;;42.14;8.42;102140.22;4996467;28;45233;-67
2022/08/06 09:59:11;;;;;;;;;2.00;0.00;;;;;42.25;8.11;102138.75;5004860;28;47925;-67
2022/08/06 10:01:43;;;;;;;;;0.00;0.00;;;;;41.25;8.75;102130.91;4997513;28;45655;-66
2022/08/06 10:04:25;;;;;;;;;1.00;0.00;;;;;40.80;9.00;102129.19;4998842;28;45364;-66
2022/08/06 10:06:52;;;;;;;;;0.67;0.00;;;;;40.21;9.42;102136.63;5013771;28;45188;-69
2022/08/06 10:09:18;;;;;;;;;0.67;0.67;;;;;39.33;10.19;102135.75;5015599;28;45703;-70
2022/08/06 10:11:43;;;;;;;;;0.67;0.00;;;;;37.56;10.50;102125.81;5006740;28;45527;-71
2022/08/06 10:14:24;;;;;;;;;0.00;0.00;;;;;35.72;12.25;102142.53;4996857;28;45303;-69
2022/08/06 10:17:04;;;;;;;;;0.00;0.00;;;;;34.34;13.11;102138.69;5003028;28;45480;-70
2022/08/06 10:19:30;;;;;;;;;0.00;0.00;;;;;32.89;13.48;102147.22;5011065;28;46422;-65
2022/08/06 10:22:06;;;;;;;;;0.00;0.00;;;;;31.54;14.89;102148.59;5015612;28;45444;-65
2022/08/06 10:24:36;;;;;;;;;1.00;1.00;;;;;30.49;15.82;102122.44;5014110;28;45397;-71
2022/08/06 10:27:06;;;;;;;;;0.00;0.00;;;;;30.17;15.89;102138.50;4996568;28;45445;-63
2022/08/06 10:29:34;;;;;;;;;0.33;0.33;;;;;29.61;16.59;102139.91;4999803;28;47261;-65
2022/08/06 10:32:02;;;;;;;;;0.00;0.00;;;;;29.08;16.80;102134.44;4996242;28;45192;-66
2022/08/06 10:34:32;;;;;;;;;1.00;0.00;;;;;28.34;17.91;102135.59;4996176;28;45671;-65
2022/08/06 10:37:02;;;;;;;;;0.00;0.00;;;;;27.66;18.21;102086.47;4996806;28;45244;-64
2022/08/06 10:39:33;;;;;;;;;0.00;0.00;;;;;27.45;19.29;102128.66;5009629;28;46578;-63
2022/08/06 10:42:00;;;;;;;;;1.33;1.33;;;;;27.09;19.31;102145.69;5018783;28;45257;-64
2022/08/06 10:44:27;;;;;;;;;1.33;1.00;;;;;26.61;19.75;102121.56;5017579;28;45470;-64
2022/08/06 10:46:52;;;;;;;;;0.00;0.00;;;;;26.30;20.13;102106.78;5000795;28;45284;-64
2022/08/06 10:49:22;;;;;;;;;1.00;1.00;;;;;26.25;20.82;102122.13;5012741;28;46377;-65
2022/08/06 10:51:49;;;;;;;;;1.67;1.00;;;;;26.10;21.41;102111.44;4997449;28;45685;-65
2022/08/06 10:54:15;;;;;;;;;3.00;2.00;;;;;26.01;21.78;102110.00;5017776;28;45496;-63
2022/08/06 10:56:41;;;;;;;;;1.00;1.00;;;;;24.66;21.98;101890.84;5012685;28;45620;-65
2022/08/06 10:59:07;;;;;;;;;1.00;1.00;;;;;25.84;21.63;102125.97;5008535;28;46189;-64
2022/08/06 11:01:41;;;;;;;;;3.67;1.67;;;;;25.70;21.37;102119.69;5015034;28;45682;-65
2022/08/06 11:04:35;;;;;;;;;1.00;1.00;;;;;25.51;21.51;102128.66;4992470;28;45682;-64
2022/08/06 11:07:18;;;;;;;;;1.00;1.00;;;;;25.51;21.33;102108.78;5010703;28;45501;-66
2022/08/06 11:10:05;;;;;;;;;3.00;2.00;;;;;25.39;21.23;102105.81;5001143;28;45384;-66
2022/08/06 11:13:07;;;;;;;;;4.67;3.00;;;;;25.26;21.41;102094.94;5016415;28;45627;-65
2022/08/06 11:15:36;;;;;;;;;1.67;1.67;;;;;24.92;22.21;102115.78;4967652;28;45487;-64
2022/08/06 11:18:07;;;;;;;;;2.67;2.00;;;;;24.82;22.07;102115.31;5008013;28;45611;-65
2022/08/06 11:20:32;;;;;;;;;57.00;43.00;;;;;24.79;22.84;102110.31;5018540;28;48074;-65
2022/08/06 11:23:03;;;;;;;;;2.00;2.00;;;;;24.72;23.00;102104.00;5012899;28;45235;-66
2022/08/06 11:25:46;;;;;;;;;7.00;4.67;;;;;24.82;23.06;102099.00;4999073;28;45370;-65
2022/08/06 11:28:14;;;;;;;;;4.00;2.67;;;;;24.83;23.19;102092.56;5005469;28;45525;-65
2022/08/06 11:30:55;;;;;;;;;39.00;30.33;;;;;24.90;23.36;102089.84;5009379;28;45729;-65
2022/08/06 11:33:33;;;;;;;;;2.00;2.00;;;;;24.84;22.47;102081.47;5014394;28;45457;-64
2022/08/06 11:36:09;;;;;;;;;2.00;2.00;;;;;24.76;23.45;102089.78;5018214;28;45494;-64
2022/08/06 11:38:50;;;;;;;;;2.00;2.00;;;;;24.52;23.21;102096.63;5007062;28;45494;-65
2022/08/06 11:41:24;;;;;;;;;2.33;2.33;;;;;24.33;22.77;102085.66;5008822;28;46200;-65